Time;durP1;ratioP1;P1;durP2;ratioP2;P2;SDS_P1;SDS_P2;PMS_P1;PMS_P2;Temp;Humidity;BMP_temperature;BMP_pressure;BME280_temperature;BME280_humidity;BME280_pressure;Samples;Min_cycle;Max_cycle;Signal;HPM_P1;HPM_P2
2022/08/15 00:01:25;;;;;;;11.85;6.63;;;21.10;99.90;21.30;99206.00;;;;4995403;28;87232;-60
2022/08/15 00:03:56;;;;;;;10.60;5.78;;;21.10;99.90;21.40;99211.00;;;;4988705;28;86954;-60
2022/08/15 00:06:41;;;;;;;;;;;21.10;99.90;21.40;99216.00;;;;5001546;28;88493;-60
2022/08/15 00:09:18;;;;;;;9.77;6.35;;;21.10;99.90;21.30;99208.00;;;;4987419;28;87904;-60
2022/08/15 00:11:50;;;;;;;14.20;6.90;;;21.10;99.90;21.30;99216.00;;;;4988054;28;87522;-61
2022/08/15 00:14:36;;;;;;;14.57;7.15;;;21.10;99.90;21.40;99209.00;;;;4992235;28;87024;-61
2022/08/15 00:17:09;;;;;;;12.48;7.28;;;21.20;99.90;21.40;99220.00;;;;5000091;28;87729;-61
2022/08/15 00:19:47;;;;;;;12.02;7.28;;;21.20;99.90;21.50;99217.00;;;;4970774;28;87566;-61
2022/08/15 00:22:17;;;;;;;11.35;7.20;;;;;21.50;99216.00;;;;4981989;28;87106;-61
2022/08/15 00:24:47;;;;;;;11.45;7.38;;;21.20;99.90;21.50;99213.00;;;;4990521;28;86954;-61
2022/08/15 00:27:14;;;;;;;13.10;6.90;;;;;21.50;99218.00;;;;4982808;28;87965;-61
2022/08/15 00:29:41;;;;;;;15.32;6.75;;;;;21.50;99220.00;;;;4990938;28;87363;-61
2022/08/15 00:32:16;;;;;;;10.73;6.18;;;21.20;99.90;21.50;99210.00;;;;5007794;28;88467;-61
2022/08/15 00:34:43;;;;;;;14.05;6.75;;;;;21.40;99213.00;;;;4989946;28;86918;-61
2022/08/15 00:37:09;;;;;;;13.73;6.20;;;;;21.40;99212.00;;;;4984847;28;87730;-61
2022/08/15 00:39:36;;;;;;;9.25;6.18;;;;;21.30;99218.00;;;;4987955;28;87667;-61
2022/08/15 00:42:06;;;;;;;8.63;6.07;;;21.10;99.90;21.30;99211.00;;;;4996587;28;87012;-61
2022/08/15 00:44:41;;;;;;;13.90;8.07;;;21.10;99.90;21.30;99214.00;;;;4996485;28;86986;-61
2022/08/15 00:47:18;;;;;;;7.75;6.00;;;21.10;99.90;21.30;99223.00;;;;4996227;28;88166;-60
2022/08/15 00:49:46;;;;;;;12.25;6.72;;;21.00;99.90;21.20;99209.00;;;;4985148;28;87488;-61
2022/08/15 00:52:26;;;;;;;9.70;7.05;;;21.00;99.90;21.20;99216.00;;;;4989152;28;87452;-61
2022/08/15 00:55:08;;;;;;;10.05;6.70;;;20.90;99.90;21.10;99225.00;;;;4990261;28;87363;-61
2022/08/15 00:57:41;;;;;;;12.65;6.80;;;20.80;99.90;21.10;99223.00;;;;4984543;28;89074;-61
2022/08/15 01:00:18;;;;;;;15.70;7.32;;;20.70;99.90;20.90;99218.00;;;;4989454;28;88370;-61
2022/08/15 01:02:45;;;;;;;13.00;7.28;;;20.60;99.90;20.70;99223.00;;;;4984338;28;87447;-61
2022/08/15 01:05:14;;;;;;;12.70;8.05;;;20.50;99.90;20.70;99225.00;;;;4996461;28;86886;-61
2022/08/15 01:07:43;;;;;;;10.68;6.93;;;;;20.60;99220.00;;;;4997538;28;88086;-63
2022/08/15 01:10:12;;;;;;;15.68;7.78;;;20.30;99.90;20.50;99228.00;;;;4983262;28;87322;-63
2022/08/15 01:12:41;;;;;;;10.80;7.90;;;;;20.50;99230.00;;;;4983723;28;87341;-63
2022/08/15 01:15:14;;;;;;;15.75;7.72;;;20.30;99.90;20.40;99229.00;;;;4986103;28;86675;-63
2022/08/15 01:17:42;;;;;;;14.35;7.53;;;20.30;99.90;20.40;99234.00;;;;4995491;28;87488;-63
2022/08/15 01:20:21;;;;;;;9.35;7.60;;;20.20;99.90;20.30;99235.00;;;;4993702;28;87435;-63
2022/08/15 01:23:12;;;;;;;17.52;7.70;;;20.10;99.90;20.30;99229.00;;;;4991965;28;88377;-63
2022/08/15 01:25:42;;;;;;;;;;;20.20;99.90;20.30;99237.00;;;;4989199;28;87118;-64
2022/08/15 01:28:20;;;;;;;13.23;8.23;;;20.10;99.90;20.30;99243.00;;;;4988069;28;89739;-63
2022/08/15 01:30:56;;;;;;;13.65;9.27;;;20.00;99.90;20.20;99223.00;;;;4970905;28;87335;-63
2022/08/15 01:33:27;;;;;;;15.20;10.27;;;20.00;99.90;20.10;99226.00;;;;4987495;28;87071;-60
2022/08/15 01:35:54;;;;;;;14.85;8.65;;;;;20.10;99221.00;;;;4988481;28;87292;-60
2022/08/15 01:38:36;;;;;;;17.02;10.55;;;19.90;99.90;20.10;99229.00;;;;4989168;28;88629;-60
2022/08/15 01:41:04;;;;;;;21.08;9.63;;;;;20.00;99230.00;;;;4987366;28;86302;-60
2022/08/15 01:43:38;;;;;;;15.30;9.80;;;19.90;99.90;20.00;99234.00;;;;4991858;28;87276;-60
2022/08/15 01:46:08;;;;;;;18.50;11.10;;;19.80;99.90;19.90;99243.00;;;;4973556;28;87411;-60
2022/08/15 01:48:45;;;;;;;16.60;10.00;;;19.70;99.90;19.90;99242.00;;;;4988025;28;89369;-60
2022/08/15 01:51:12;;;;;;;18.95;9.68;;;;;19.80;99239.00;;;;4986895;28;88318;-60
2022/08/15 01:53:56;;;;;;;17.40;10.93;;;19.70;99.90;19.80;99235.00;;;;4965924;28;87007;-60
2022/08/15 01:56:41;;;;;;;18.83;11.35;;;19.70;99.90;19.80;99242.00;;;;4982576;28;87171;-60
2022/08/15 01:59:15;;;;;;;23.88;12.13;;;19.60;99.90;19.80;99239.00;;;;4991665;28;87475;-60
2022/08/15 02:01:56;;;;;;;19.88;11.48;;;19.60;99.90;19.80;99251.00;;;;4985538;28;88787;-60
2022/08/15 02:04:37;;;;;;;21.48;11.93;;;19.60;99.90;19.80;99246.00;;;;4966649;28;87086;-60
2022/08/15 02:07:17;;;;;;;17.40;10.82;;;19.60;99.90;19.80;99250.00;;;;4978767;28;86421;-60
2022/08/15 02:09:47;;;;;;;23.00;13.40;;;20.40;99.90;19.90;99247.00;;;;4981075;28;88399;-61
2022/08/15 02:12:19;;;;;;;18.50;11.77;;;19.80;99.90;20.00;99250.00;;;;4985713;28;87365;-64
2022/08/15 02:14:46;;;;;;;21.00;11.52;;;;;20.00;99246.00;;;;4992610;28;88517;-63
2022/08/15 02:17:13;;;;;;;19.05;12.20;;;19.80;99.90;20.00;99246.00;;;;4987426;28;88150;-63
2022/08/15 02:19:42;;;;;;;23.63;11.80;;;19.70;99.90;19.90;99259.00;;;;4991013;28;88033;-63
2022/08/15 02:22:10;;;;;;;18.50;11.07;;;;;19.80;99257.00;;;;5001052;28;87431;-63
2022/08/15 02:24:37;;;;;;;14.55;11.43;;;19.60;99.90;19.80;99251.00;;;;5001490;28;86918;-64
2022/08/15 02:27:05;;;;;;;17.52;11.88;;;19.50;99.90;19.70;99248.00;;;;4988543;28;87141;-63
2022/08/15 02:29:32;;;;;;;16.85;11.00;;;;;19.70;99253.00;;;;4991468;28;87617;-63
2022/08/15 02:32:13;;;;;;;23.45;12.05;;;19.50;99.90;19.60;99251.00;;;;4990553;28;86747;-63
2022/08/15 02:34:43;;;;;;;16.48;10.63;;;19.40;99.90;19.60;99253.00;;;;4990798;28;87696;-63
2022/08/15 02:37:18;;;;;;;19.42;11.52;;;19.40;99.90;19.60;99251.00;;;;4996099;28;87385;-63
2022/08/15 02:39:49;;;;;;;18.55;11.40;;;19.50;99.90;19.60;99249.00;;;;4998131;28;88458;-63
2022/08/15 02:42:17;;;;;;;15.40;11.60;;;19.40;99.90;19.60;99249.00;;;;5001021;28;87794;-63
2022/08/15 02:44:44;;;;;;;24.13;12.00;;;19.40;99.90;19.60;99255.00;;;;4986595;28;87475;-63
2022/08/15 02:47:15;;;;;;;16.38;12.07;;;;;19.60;99258.00;;;;4996194;28;87462;-62
2022/08/15 02:49:43;;;;;;;17.55;10.88;;;;;19.70;99252.00;;;;4992384;28;87715;-62
2022/08/15 02:52:12;;;;;;;23.33;12.13;;;;;19.70;99258.00;;;;4994355;28;87669;-63
2022/08/15 02:54:40;;;;;;;17.42;10.85;;;;;19.80;99259.00;;;;4989040;28;87043;-62
2022/08/15 02:57:10;;;;;;;18.92;12.02;;;;;19.80;99256.00;;;;4991252;28;86721;-63
2022/08/15 02:59:39;;;;;;;22.63;13.18;;;;;19.90;99258.00;;;;4991716;28;87704;-62
2022/08/15 03:02:12;;;;;;;18.33;12.00;;;;;20.30;99266.00;;;;4988853;28;87035;-62
2022/08/15 03:04:39;;;;;;;15.98;11.88;;;;;20.70;99264.00;;;;4990509;28;88030;-63
2022/08/15 03:07:09;;;;;;;16.23;12.05;;;;;20.80;99265.00;;;;4986953;28;87515;-63
2022/08/15 03:09:36;;;;;;;20.10;12.88;;;;;20.70;99265.00;;;;4995956;28;87534;-63
2022/08/15 03:12:07;;;;;;;19.58;13.18;;;;;20.70;99265.00;;;;4996476;28;90021;-63
2022/08/15 03:14:37;;;;;;;18.30;11.93;;;;;20.80;99255.00;;;;4990746;28;87301;-63
2022/08/15 03:17:10;;;;;;;18.38;12.00;;;;;21.10;99260.00;;;;4998157;28;87476;-63
2022/08/15 03:19:44;;;;;;;18.20;12.02;;;;;21.60;99270.00;;;;4987228;28;87524;-63
2022/08/15 03:22:13;;;;;;;22.20;12.60;;;;;22.00;99271.00;;;;4980982;28;88458;-63
2022/08/15 03:24:42;;;;;;;19.95;13.35;;;;;22.50;99263.00;;;;4989895;28;87364;-63
2022/08/15 03:27:09;;;;;;;18.08;12.43;;;;;22.80;99267.00;;;;4993997;28;87278;-63
2022/08/15 03:29:38;;;;;;;18.23;11.40;;;;;23.10;99271.00;;;;4989700;28;88497;-63
2022/08/15 03:32:12;;;;;;;21.50;13.13;;;22.90;99.90;23.40;99269.00;;;;4986846;28;88061;-63
2022/08/15 03:34:38;;;;;;;20.38;13.27;;;;;23.60;99263.00;;;;4982816;28;87286;-63
2022/08/15 03:37:05;;;;;;;21.83;13.27;;;;;23.70;99272.00;;;;4985393;28;86966;-63
2022/08/15 03:39:31;;;;;;;16.23;12.05;;;;;23.60;99266.00;;;;4990592;28;88629;-64
2022/08/15 03:41:59;;;;;;;19.92;12.68;;;;;23.60;99274.00;;;;4989076;28;87316;-64
2022/08/15 03:44:26;;;;;;;23.58;12.65;;;;;23.70;99271.00;;;;4994201;28;87043;-63
2022/08/15 03:46:52;;;;;;;16.55;11.75;;;;;23.70;99274.00;;;;4968535;28;86621;-63
2022/08/15 03:49:20;;;;;;;17.33;11.95;;;;;23.30;99282.00;;;;4989065;28;88244;-63
2022/08/15 03:51:47;;;;;;;15.40;12.15;;;;;22.90;99274.00;;;;4988484;28;87320;-63
2022/08/15 03:54:14;;;;;;;18.88;12.20;;;;;22.50;99281.00;;;;4993832;28;87819;-63
2022/08/15 03:56:43;;;;;;;18.52;12.93;;;;;22.30;99271.00;;;;4972826;28;87827;-63
2022/08/15 03:59:12;;;;;;;17.85;13.32;;;;;22.10;99277.00;;;;4988580;28;88146;-63
2022/08/15 04:01:42;;;;;;;24.40;14.32;;;;;21.90;99283.00;;;;4992758;28;88430;-63
2022/08/15 04:04:08;;;;;;;16.73;13.68;;;;;21.70;99289.00;;;;4998230;28;87541;-63
2022/08/15 04:06:43;;;;;;;20.67;13.75;;;;;21.60;99285.00;;;;4990892;28;87268;-63
2022/08/15 04:09:11;;;;;;;23.27;13.45;;;;;21.60;99276.00;;;;4991211;28;87079;-63
2022/08/15 04:11:42;;;;;;;22.67;14.23;;;;;21.90;99282.00;;;;4994017;28;88978;-63
2022/08/15 04:14:13;;;;;;;24.15;13.65;;;;;22.20;99275.00;;;;4997846;28;87103;-63
2022/08/15 04:16:39;;;;;;;16.88;13.20;;;;;22.70;99282.00;;;;4994259;28;87486;-63
2022/08/15 04:19:05;;;;;;;17.23;12.25;;;;;23.30;99283.00;;;;4991720;28;88491;-63
2022/08/15 04:21:33;;;;;;;17.67;12.27;;;;;23.80;99277.00;;;;4979209;28;88018;-63
2022/08/15 04:23:59;;;;;;;18.35;12.27;;;;;24.10;99272.00;;;;4994901;28;90205;-63
2022/08/15 04:26:26;;;;;;;18.25;12.98;;;;;24.30;99279.00;;;;4985047;28;88181;-63
2022/08/15 04:28:53;;;;;;;19.00;12.77;;;;;24.50;99280.00;;;;4989459;28;87916;-63
2022/08/15 04:31:21;;;;;;;17.73;11.55;;;24.00;99.90;24.60;99280.00;;;;4989904;28;87370;-63
2022/08/15 04:33:49;;;;;;;21.05;12.27;;;23.80;99.90;24.30;99270.00;;;;4993173;28;87103;-63
2022/08/15 04:36:19;;;;;;;19.52;12.13;;;23.60;99.90;24.10;99278.00;;;;4994527;28;86798;-63
2022/08/15 04:38:51;;;;;;;20.67;11.48;;;;;23.90;99281.00;;;;4996525;28;87824;-64
2022/08/15 04:41:19;;;;;;;21.15;11.75;;;;;24.00;99277.00;;;;4998984;28;87412;-63
2022/08/15 04:43:46;;;;;;;19.63;11.70;;;23.90;99.90;24.30;99272.00;;;;4993957;28;88409;-64
2022/08/15 04:46:18;;;;;;;14.93;12.10;;;;;24.60;99285.00;;;;4987189;28;87158;-64
2022/08/15 04:48:45;;;;;;;25.70;12.70;;;;;25.00;99287.00;;;;4967538;28;89396;-64
2022/08/15 04:51:12;;;;;;;15.38;13.20;;;;;25.10;99270.00;;;;4992615;28;87486;-63
2022/08/15 04:53:40;;;;;;;22.38;13.10;;;;;25.30;99278.00;;;;4984914;28;87719;-63
2022/08/15 04:56:08;;;;;;;18.83;13.40;;;;;25.60;99269.00;;;;4991824;28;87570;-63
2022/08/15 04:58:37;;;;;;;19.38;13.27;;;;;26.00;99278.00;;;;4988893;28;87659;-63
2022/08/15 05:01:11;;;;;;;20.15;13.88;;;25.60;99.90;26.30;99277.00;;;;4976189;28;90165;-64
2022/08/15 05:03:48;;;;;;;18.88;14.25;;;;;26.40;99278.00;;;;4993218;28;87413;-63
2022/08/15 05:06:15;;;;;;;18.42;13.63;;;;;26.70;99283.00;;;;4992829;28;88039;-63
2022/08/15 05:08:42;;;;;;;24.92;14.10;;;;;26.90;99272.00;;;;4985379;28;89597;-63
2022/08/15 05:11:18;;;;;;;20.85;13.63;;;26.60;99.90;27.20;99283.00;;;;4995567;28;87387;-63
2022/08/15 05:13:49;;;;;;;22.15;14.00;;;;;27.30;99289.00;;;;4987648;28;87212;-63
2022/08/15 05:16:27;;;;;;;22.58;14.50;;;;;27.30;99281.00;;;;4987021;28;87079;-64
2022/08/15 05:18:54;;;;;;;20.60;13.90;;;;;26.90;99281.00;;;;4984252;28;87523;-63
2022/08/15 05:21:21;;;;;;;16.27;13.25;;;;;26.90;99275.00;;;;4997500;28;87656;-64
2022/08/15 05:23:48;;;;;;;21.95;14.57;;;;;27.10;99279.00;;;;4997857;28;87495;-64
2022/08/15 05:26:20;;;;;;;20.13;15.20;;;;;27.30;99280.00;;;;4991633;28;86460;-64
2022/08/15 05:28:46;;;;;;;25.60;14.80;;;;;27.70;99283.00;;;;4988747;28;88073;-63
2022/08/15 05:31:13;;;;;;;31.50;18.85;;;;;27.80;99276.00;;;;4992648;28;88509;-63
2022/08/15 05:33:44;;;;;;;30.58;19.77;;;26.80;99.90;27.40;99280.00;;;;4991088;28;88173;-63
2022/08/15 05:36:11;;;;;;;27.83;19.80;;;26.60;99.90;27.10;99271.00;;;;4993709;28;87149;-63
2022/08/15 05:38:52;;;;;;;25.30;20.13;;;26.50;99.90;27.00;99267.00;;;;4995877;28;88854;-63
2022/08/15 05:41:33;;;;;;;24.45;17.90;;;26.20;99.90;26.80;99274.00;;;;4981844;28;87523;-63
2022/08/15 05:44:24;;;;;;;25.80;18.27;;;26.30;99.90;26.80;99283.00;;;;4996540;28;87422;-63
2022/08/15 05:47:12;;;;;;;25.20;17.03;;;26.30;99.90;26.90;99270.00;;;;4987052;28;87337;-63
2022/08/15 05:49:45;;;;;;;21.17;15.68;;;26.50;99.90;27.00;99271.00;;;;4984158;28;88154;-63
2022/08/15 05:52:26;;;;;;;25.83;17.77;;;26.60;99.90;27.20;99275.00;;;;4971510;28;88014;-63
2022/08/15 05:55:40;;;;;;;20.27;15.77;;;26.80;99.90;27.50;99274.00;;;;4957279;28;87218;-63
2022/08/15 05:58:18;;;;;;;23.90;15.75;;;27.10;99.90;27.80;99277.00;;;;4960599;28;87638;-63
2022/08/15 06:00:57;;;;;;;23.38;15.95;;;27.20;99.90;27.80;99268.00;;;;4986762;28;88726;-63
2022/08/15 06:03:26;;;;;;;21.58;15.73;;;26.60;99.90;27.30;99265.00;;;;4995417;28;88224;-63
2022/08/15 06:06:03;;;;;;;21.25;14.27;;;26.50;99.90;27.00;99262.00;;;;4994755;28;87706;-63
2022/08/15 06:08:36;;;;;;;20.38;14.60;;;26.20;99.90;26.70;99271.00;;;;4975344;28;87491;-63
2022/08/15 06:11:11;;;;;;;19.63;14.43;;;25.80;99.90;26.20;99262.00;;;;4992308;28;88751;-63
2022/08/15 06:13:45;;;;;;;22.15;14.77;;;25.80;99.90;26.00;99271.00;;;;4989794;28;87293;-63
2022/08/15 06:16:46;;;;;;;19.67;14.00;;;25.60;99.90;25.80;99273.00;;;;4976608;28;88396;-63
2022/08/15 06:19:33;;;;;;;20.80;14.85;;;25.70;99.90;25.90;99260.00;;;;4971098;28;86392;-63
2022/08/15 06:22:25;;;;;;;20.40;14.75;;;25.70;99.90;25.80;99271.00;;;;4996552;28;88109;-63
2022/08/15 06:24:52;;;;;;;19.33;14.43;;;;;25.80;99270.00;;;;4997111;28;87689;-63
2022/08/15 06:27:38;;;;;;;21.65;14.18;;;25.50;99.90;25.70;99274.00;;;;4989384;28;88241;-63
2022/08/15 06:30:24;;;;;;;18.52;11.60;;;;;25.60;99280.00;;;;4970664;28;87048;-63
2022/08/15 06:33:21;;;;;;;19.40;12.00;;;25.40;99.90;25.50;99267.00;;;;4991925;28;89427;-63
2022/08/15 06:36:12;;;;;;;15.82;10.82;;;25.40;99.90;25.50;99277.00;;;;4991010;28;87375;-63
2022/08/15 06:39:02;;;;;;;14.90;9.95;;;25.50;99.90;25.60;99284.00;;;;4995227;28;87011;-63
2022/08/15 06:41:42;;;;;;;14.75;10.20;;;25.80;99.90;25.70;99285.00;;;;4978641;28;87047;-63
2022/08/15 06:44:17;;;;;;;16.23;10.73;;;;;25.70;99281.00;;;;4991403;28;87678;-63
2022/08/15 06:47:03;;;;;;;14.60;11.02;;;25.60;99.90;25.80;99289.00;;;;4991159;28;87480;-63
2022/08/15 06:49:40;;;;;;;17.63;10.77;;;25.50;99.90;25.70;99282.00;;;;4977161;28;87567;-63
2022/08/15 06:52:08;;;;;;;13.45;9.10;;;25.60;99.80;25.70;99277.00;;;;4965151;28;87381;-63
2022/08/15 06:54:35;;;;;;;12.13;8.35;;;;;25.60;99287.00;;;;4983924;28;89715;-63
2022/08/15 06:57:50;;;;;;;17.70;7.65;;;25.40;99.80;25.60;99287.00;;;;4963477;28;88356;-64
2022/08/15 07:00:40;;;;;;;9.52;6.10;;;25.40;99.60;25.60;99281.00;;;;4989584;28;87501;-64
2022/08/15 07:03:49;;;;;;;9.45;5.47;;;25.60;98.80;25.80;99284.00;;;;4989484;28;87090;-64
2022/08/15 07:06:33;;;;;;;10.13;4.80;;;25.40;98.70;25.60;99291.00;;;;4981639;28;87052;-64
2022/08/15 07:09:34;;;;;;;8.10;4.30;;;25.40;98.90;25.60;99292.00;;;;4977687;28;87415;-64
2022/08/15 07:12:13;;;;;;;8.63;4.13;;;;;25.60;99290.00;;;;5003500;28;88008;-64
2022/08/15 07:14:59;;;;;;;10.77;4.60;;;25.60;99.80;25.80;99288.00;;;;4989632;28;86257;-64
2022/08/15 07:17:37;;;;;;;10.35;3.55;;;25.70;98.90;25.90;99289.00;;;;4994157;28;88713;-63
2022/08/15 07:20:11;;;;;;;11.75;4.15;;;;;25.90;99288.00;;;;4972316;28;87394;-64
2022/08/15 07:22:40;;;;;;;7.88;4.47;;;;;26.00;99290.00;;;;4988380;28;88556;-63
2022/08/15 07:25:14;;;;;;;;;;;25.80;99.50;25.90;99298.00;;;;4991366;28;86991;-63
2022/08/15 07:27:41;;;;;;;9.65;4.60;;;;;25.90;99298.00;;;;4959022;28;87763;-62
2022/08/15 07:30:14;;;;;;;9.75;3.53;;;25.70;99.00;25.90;99291.00;;;;4990362;28;87630;-64
2022/08/15 07:32:41;;;;;;;5.20;3.30;;;;;25.80;99305.00;;;;4994217;28;87946;-63
2022/08/15 07:35:12;;;;;;;5.15;3.10;;;25.60;97.80;25.80;99297.00;;;;4983183;28;87061;-64
2022/08/15 07:37:48;;;;;;;5.45;3.28;;;25.60;98.20;25.80;99292.00;;;;4995470;28;88089;-64
2022/08/15 07:40:30;;;;;;;9.88;4.20;;;25.60;98.20;25.80;99295.00;;;;4997972;28;87194;-63
2022/08/15 07:43:01;;;;;;;4.95;3.03;;;25.40;98.40;25.90;99292.00;;;;4996179;28;87338;-63
2022/08/15 07:45:46;;;;;;;5.55;3.63;;;25.70;98.40;25.90;99295.00;;;;4987787;28;87528;-63
2022/08/15 07:48:27;;;;;;;5.63;3.85;;;25.60;98.50;25.80;99283.00;;;;4982095;28;90928;-63
2022/08/15 07:51:14;;;;;;;5.90;3.60;;;25.70;99.60;25.90;99295.00;;;;4967729;28;90573;-63
2022/08/15 07:54:26;;;;;;;5.97;4.03;;;25.80;99.00;26.00;99288.00;;;;4986016;28;87461;-63
2022/08/15 07:56:58;;;;;;;6.70;4.15;;;25.70;99.40;26.00;99296.00;;;;4992437;28;87501;-63
2022/08/15 07:59:35;;;;;;;4.95;3.05;;;25.80;98.20;26.10;99297.00;;;;4991681;28;87019;-63
2022/08/15 08:02:16;;;;;;;;;;;25.80;98.50;26.20;99292.00;;;;4982938;28;87256;-63
2022/08/15 08:04:43;;;;;;;10.52;3.00;;;;;26.40;99289.00;;;;4989081;28;87003;-63
2022/08/15 08:07:31;;;;;;;8.80;3.15;;;26.30;96.00;26.50;99294.00;;;;5001551;28;86289;-63
2022/08/15 08:10:20;;;;;;;9.88;3.30;;;26.40;95.80;26.60;99292.00;;;;4973101;28;88664;-63
2022/08/15 08:13:20;;;;;;;9.70;3.33;;;26.40;96.30;26.70;99306.00;;;;4971297;28;87615;-63
2022/08/15 08:15:54;;;;;;;8.83;3.03;;;;;26.50;99307.00;;;;4988101;28;88246;-63
2022/08/15 08:19:02;;;;;;;8.38;2.70;;;26.10;96.80;26.30;99295.00;;;;4975303;28;87140;-63
2022/08/15 08:22:19;;;;;;;4.70;2.42;;;26.10;96.90;26.30;99295.00;;;;4987358;28;87738;-63
2022/08/15 08:25:07;;;;;;;7.75;2.70;;;25.90;96.60;26.20;99314.00;;;;4978244;28;87497;-63
2022/08/15 08:27:37;;;;;;;6.68;3.22;;;;;26.10;99297.00;;;;4988537;28;87245;-63
2022/08/15 08:30:05;;;;;;;5.35;2.90;;;;;26.10;99293.00;;;;4987132;28;87469;-63
2022/08/15 08:32:45;;;;;;;7.40;3.10;;;25.90;96.60;26.20;99289.00;;;;4988003;28;88799;-64
2022/08/15 08:35:33;;;;;;;8.20;2.97;;;26.10;97.00;26.40;99285.00;;;;4977808;28;90163;-63
2022/08/15 08:38:09;;;;;;;5.82;2.45;;;;;26.80;99290.00;;;;4990966;28;87284;-63
2022/08/15 08:44:07;;;;;;;5.85;2.45;;;26.80;95.70;27.20;99298.00;;;;4986508;28;89648;-64
2022/08/15 08:47:27;;;;;;;4.10;2.50;;;27.00;95.70;27.30;99293.00;;;;4987040;28;88122;-64
2022/08/15 08:50:02;;;;;;;4.25;2.45;;;27.10;96.20;27.40;99291.00;;;;4987975;28;87424;-64
2022/08/15 08:52:33;;;;;;;7.40;3.30;;;;;27.30;99294.00;;;;4991801;28;86966;-64
2022/08/15 08:55:54;;;;;;;4.85;2.58;;;27.00;95.20;27.20;99289.00;;;;4985925;28;88461;-64
2022/08/15 08:58:32;;;;;;;4.45;2.40;;;;;27.00;99295.00;;;;4988737;28;87430;-64
2022/08/15 09:00:59;;;;;;;6.15;2.60;;;;;26.90;99292.00;;;;4987462;28;87265;-64
2022/08/15 09:03:38;;;;;;;8.48;2.70;;;26.60;93.80;26.90;99283.00;;;;4987473;28;86402;-64
2022/08/15 09:06:09;;;;;;;6.53;2.20;;;26.60;93.50;27.00;99284.00;;;;4996586;28;88730;-64
2022/08/15 09:08:42;;;;;;;9.48;2.38;;;26.60;93.70;27.00;99289.00;;;;4992942;28;87935;-64
2022/08/15 09:11:27;;;;;;;5.72;2.63;;;26.80;93.10;27.10;99281.00;;;;4986040;28;88513;-64
2022/08/15 09:13:58;;;;;;;6.65;2.28;;;26.90;92.80;27.20;99280.00;;;;4986064;28;87315;-64
2022/08/15 09:16:36;;;;;;;4.72;2.58;;;26.80;92.00;27.10;99281.00;;;;4983491;28;87615;-64
2022/08/15 09:19:40;;;;;;;4.13;2.53;;;27.00;92.40;27.30;99286.00;;;;4988718;28;87437;-64
2022/08/15 09:22:06;;;;;;;5.47;2.58;;;;;27.40;99281.00;;;;4989272;28;87075;-64
2022/08/15 09:24:33;;;;;;;6.15;2.17;;;;;27.60;99282.00;;;;4986940;28;87563;-64
2022/08/15 09:27:18;;;;;;;5.80;2.30;;;27.30;91.00;27.70;99282.00;;;;4992013;28;87712;-64
2022/08/15 09:29:55;;;;;;;5.15;3.17;;;27.20;90.80;27.60;99286.00;;;;4989096;28;90062;-65
2022/08/15 09:32:27;;;;;;;7.85;2.70;;;;;27.60;99279.00;;;;4986633;28;87475;-64
2022/08/15 09:35:38;;;;;;;6.22;2.28;;;27.30;90.00;27.60;99266.00;;;;4985069;28;87371;-63
2022/08/15 09:38:39;;;;;;;8.50;3.70;;;27.30;90.30;27.70;99270.00;;;;4993732;28;89805;-64
2022/08/15 09:41:39;;;;;;;5.80;2.38;;;27.20;90.70;27.60;99276.00;;;;4997188;28;88084;-64
2022/08/15 09:44:53;;;;;;;7.80;3.33;;;27.30;90.40;27.60;99281.00;;;;4997625;28;87458;-64
2022/08/15 09:48:09;;;;;;;8.68;2.40;;;27.30;89.20;27.70;99280.00;;;;4991384;28;87220;-63
2022/08/15 09:50:57;;;;;;;5.68;2.38;;;27.30;90.40;27.70;99282.00;;;;4975850;28;88946;-64
2022/08/15 09:53:40;;;;;;;4.45;2.15;;;27.30;90.20;27.70;99276.00;;;;4988551;28;87237;-64
2022/08/15 09:56:12;;;;;;;8.48;2.60;;;27.30;91.00;27.70;99275.00;;;;4988881;28;87198;-64
2022/08/15 09:59:04;;;;;;;4.88;2.33;;;27.30;90.00;27.80;99279.00;;;;4989111;28;86861;-64
2022/08/15 10:01:42;;;;;;;5.05;2.40;;;27.60;90.10;28.00;99274.00;;;;4985335;28;87439;-64
2022/08/15 10:04:13;;;;;;;7.15;2.63;;;27.70;90.40;28.10;99277.00;;;;4991690;28;87178;-64
2022/08/15 10:07:29;;;;;;;4.97;2.45;;;28.10;90.50;28.50;99270.00;;;;4999449;28;88608;-64
2022/08/15 10:09:59;;;;;;;11.52;3.17;;;28.50;90.40;28.90;99270.00;;;;4984502;28;88006;-64
2022/08/15 10:12:25;;;;;;;5.57;2.90;;;;;28.90;99267.00;;;;4987809;28;88606;-64
2022/08/15 10:15:02;;;;;;;5.13;2.67;;;28.30;87.30;28.70;99264.00;;;;4991933;28;87280;-64
2022/08/15 10:17:34;;;;;;;5.30;2.90;;;28.10;88.40;28.40;99274.00;;;;4991890;28;87272;-64
2022/08/15 10:20:26;;;;;;;5.30;3.00;;;28.00;88.40;28.50;99268.00;;;;4994022;28;87779;-64
2022/08/15 10:23:01;;;;;;;9.18;3.75;;;28.10;89.30;28.50;99266.00;;;;4996204;28;88827;-64
2022/08/15 10:25:28;;;;;;;10.73;3.95;;;;;28.60;99264.00;;;;4998931;28;87473;-64
2022/08/15 10:28:19;;;;;;;10.20;3.80;;;28.30;89.30;28.70;99261.00;;;;4991852;28;87426;-64
2022/08/15 10:31:05;;;;;;;;;;;28.30;88.80;28.60;99270.00;;;;4990435;28;87713;-64
2022/08/15 10:33:34;;;;;;;9.98;7.50;;;;;28.60;99261.00;;;;4995282;28;88579;-64
2022/08/15 10:36:03;;;;;;;14.90;7.32;;;28.10;87.90;28.40;99261.00;;;;4990622;28;88298;-64
2022/08/15 10:38:31;;;;;;;13.02;7.03;;;28.10;87.30;28.40;99274.00;;;;4993685;28;87012;-64
2022/08/15 10:41:13;;;;;;;9.95;6.50;;;;;28.40;99264.00;;;;4985206;28;87715;-65
2022/08/15 10:44:00;;;;;;;11.05;7.13;;;27.90;86.90;28.30;99262.00;;;;4992342;28;87840;-64
2022/08/15 10:46:38;;;;;;;12.43;6.75;;;28.00;86.90;28.30;99262.00;;;;4990055;28;88444;-65
2022/08/15 10:49:57;;;;;;;12.30;8.35;;;28.00;85.20;28.40;99270.00;;;;4989818;28;86956;-64
2022/08/15 10:52:40;;;;;;;19.27;14.23;;;27.80;86.40;28.20;99272.00;;;;4994802;28;86488;-64
2022/08/15 10:55:29;;;;;;;21.90;15.65;;;27.70;87.00;28.10;99279.00;;;;4995790;28;88339;-64
2022/08/15 10:58:32;;;;;;;22.00;16.70;;;27.80;86.90;28.20;99281.00;;;;4993508;28;88494;-64
2022/08/15 11:01:13;;;;;;;21.77;15.35;;;27.80;87.20;28.20;99258.00;;;;5008669;28;88071;-65
2022/08/15 11:03:41;;;;;;;22.25;14.90;;;;;28.20;99267.00;;;;4994578;28;87250;-65
2022/08/15 11:06:15;;;;;;;19.73;14.40;;;27.80;89.00;28.10;99265.00;;;;4988092;28;87734;-65
2022/08/15 11:09:07;;;;;;;21.40;15.45;;;27.80;89.10;28.20;99260.00;;;;4992295;28;87330;-64
2022/08/15 11:11:40;;;;;;;18.25;13.65;;;27.80;89.70;28.20;99263.00;;;;4990187;28;87233;-65
2022/08/15 11:14:24;;;;;;;22.65;14.15;;;27.80;90.10;28.20;99271.00;;;;4990108;28;87263;-64
2022/08/15 11:16:52;;;;;;;20.65;15.73;;;27.90;89.70;28.20;99272.00;;;;4990094;28;88685;-64
2022/08/15 11:19:32;;;;;;;27.95;19.58;;;27.90;89.20;28.20;99264.00;;;;4991625;28;88561;-64
2022/08/15 11:22:06;;;;;;;29.98;22.38;;;27.80;90.00;28.10;99277.00;;;;4991754;28;87258;-65
2022/08/15 11:24:37;;;;;;;30.50;21.70;;;27.70;90.10;28.10;99269.00;;;;4989684;28;87376;-64
2022/08/15 11:27:24;;;;;;;27.98;21.63;;;27.60;90.60;27.90;99270.00;;;;4990167;28;88826;-64
2022/08/15 11:29:55;;;;;;;32.30;22.23;;;27.50;90.70;27.80;99272.00;;;;4990959;28;88524;-64
2022/08/15 11:32:37;;;;;;;33.83;25.60;;;27.40;90.10;27.80;99273.00;;;;4990730;28;87248;-64
2022/08/15 11:35:29;;;;;;;30.48;24.60;;;27.40;90.70;27.80;99271.00;;;;4986759;28;87411;-64
2022/08/15 11:37:59;;;;;;;33.38;22.25;;;27.50;90.30;27.80;99269.00;;;;4988145;28;87597;-64
2022/08/15 11:40:35;;;;;;;26.50;20.45;;;27.50;90.40;27.80;99262.00;;;;4989862;28;88514;-64
2022/08/15 11:43:06;;;;;;;30.42;20.58;;;27.60;90.80;27.90;99263.00;;;;4995473;28;87510;-64
2022/08/15 11:45:41;;;;;;;31.35;19.08;;;27.80;90.60;28.10;99266.00;;;;4984862;28;86745;-65
2022/08/15 11:48:18;;;;;;;28.15;16.30;;;27.80;90.00;28.20;99257.00;;;;4995533;28;87581;-65
2022/08/15 11:51:06;;;;;;;22.92;13.75;;;27.70;89.80;28.10;99267.00;;;;4982642;28;87949;-65
2022/08/15 11:53:40;;;;;;;21.70;14.68;;;27.80;90.20;28.10;99262.00;;;;4986449;28;88624;-64
2022/08/15 11:56:08;;;;;;;22.23;15.65;;;27.90;89.30;28.20;99254.00;;;;4990964;28;87381;-64
2022/08/15 11:58:44;;;;;;;19.88;14.82;;;28.00;89.20;28.30;99246.00;;;;4987439;28;87595;-63
2022/08/15 12:01:31;;;;;;;25.70;15.48;;;28.00;90.00;28.40;99247.00;;;;4988326;28;88836;-64